Погода Жанаталапна 2 недели

Алматинская область, Казахстан

23 июля-05 августа
  • 23июля
    Сегодня
    +23°
    +37°
    Ясно и безоблачно
    ВремяПогодаТемператураВлажностьДавлениеВетер, м/сВероятность осадков
    02:00Ясно и безоблачно+25°C52 %718 мм3.7 м/с2 %
    05:00Ясно и безоблачно+23°C59 %718 мм2.3 м/с2 %
    08:00Ясно и безоблачно+30°C41 %718 мм3.2 м/с2 %
    11:00Ясно и безоблачно+33°C29 %718 мм4.2 м/с2 %
    14:00Ясно и безоблачно+36°C23 %717 мм2.2 м/с2 %
    17:00Практически безоблачно+35°C24 %716 мм3.6 м/с2 %
    20:00Облачно с прояснениями+29°C35 %716 мм4.6 м/с2 %
    23:00Небольшая облачность+26°C44 %716 мм3.2 м/с2 %
  • 24июля
    Среда
    +22°
    +34°
    Ясно и безоблачно
    ВремяПогодаТемператураВлажностьДавлениеВетер, м/сВероятность осадков
    02:00Облачно с прояснениями+26°C51 %716 мм2.1 м/с1 %
    05:00Пасмурно, небольшой дождь+24°C69 %717 мм4.4 м/с30 %
    08:00Пасмурно, дождь+24°C81 %718 мм0.3 м/с64 %
    11:00Облачно с прояснениями+26°C63 %718 мм0.7 м/с18 %
    14:00Ясно и безоблачно+34°C32 %717 мм3.9 м/с2 %
    17:00Ясно и безоблачно+34°C32 %716 мм3.4 м/с2 %
    20:00Практически безоблачно+27°C42 %716 мм2.4 м/с2 %
    23:00Ясно и безоблачно+27°C45 %716 мм3.0 м/с2 %
  • 25июля
    Четверг
    +25°
    +38°
    Ясно и безоблачно
    ВремяПогодаТемператураВлажностьДавлениеВетер, м/сВероятность осадков
    02:00Ясно и безоблачно+24°C55 %715 мм2.5 м/с2 %
    05:00Ясно и безоблачно+23°C67 %715 мм1.4 м/с2 %
    08:00Ясно и безоблачно+32°C42 %717 мм3.1 м/с2 %
    11:00Ясно и безоблачно+35°C31 %716 мм3.1 м/с2 %
    14:00Ясно и безоблачно+38°C25 %715 мм3.9 м/с2 %
    17:00Ясно и безоблачно+37°C22 %715 мм4.9 м/с2 %
    20:00Ясно и безоблачно+31°C33 %716 мм5.0 м/с2 %
    23:00Ясно и безоблачно+30°C33 %716 мм5.7 м/с2 %
  • 26июля
    Пятница
    +24°
    +40°
    Облачно с прояснениями
    ВремяПогодаТемператураВлажностьДавлениеВетер, м/сВероятность осадков
    02:00Ясно и безоблачно+27°C39 %716 мм3.8 м/с2 %
    05:00Ясно и безоблачно+25°C47 %716 мм2.5 м/с2 %
    08:00Ясно и безоблачно+33°C35 %717 мм2.0 м/с2 %
    11:00Ясно и безоблачно+37°C26 %717 мм2.1 м/с2 %
    14:00Облачно с прояснениями+40°C21 %716 мм2.0 м/с2 %
    17:00Небольшая облачность+38°C21 %717 мм1.4 м/с2 %
    20:00Ясно и безоблачно+32°C31 %717 мм1.8 м/с2 %
    23:00Ясно и безоблачно+31°C33 %718 мм3.2 м/с2 %
  • 27июля
    Суббота
    +27°
    +40°
    Практически безоблачно
    ВремяПогодаТемператураВлажностьДавлениеВетер, м/сВероятность осадков
    02:00Ясно и безоблачно+26°C50 %717 мм1.4 м/с2 %
    05:00Ясно и безоблачно+25°C51 %717 мм1.8 м/с2 %
    08:00Ясно и безоблачно+33°C35 %719 мм1.5 м/с2 %
    11:00Практически безоблачно+38°C18 %718 мм0.2 м/с2 %
    14:00Практически безоблачно+40°C16 %718 мм0.7 м/с2 %
    17:00Ясно и безоблачно+39°C15 %718 мм1.3 м/с2 %
    20:00Ясно и безоблачно+32°C25 %718 мм2.3 м/с2 %
    23:00Ясно и безоблачно+33°C22 %717 мм4.6 м/с2 %
Мы используем cookies
Соглашаюсь